Time;durP1;ratioP1;P1;durP2;ratioP2;P2;SDS_P1;SDS_P2;PMS_P1;PMS_P2;Temp;Humidity;BMP_temperature;BMP_pressure;BME280_temperature;BME280_humidity;BME280_pressure;Samples;Min_cycle;Max_cycle;Signal;HPM_P1;HPM_P2
2019/09/28 15:11:10;;;;;;;9.7;1.1;;;;;;;-146.13;100;1154.434;;;;
2019/09/28 15:14:32;;;;;;;6.3;3.7;;;;;;;;;;;;;
2019/09/28 15:16:57;;;;;;;154.9;143.6;;;;;;;;;;;;;
2019/09/28 15:19:22;;;;;;;57.6;52.4;;;;;;;;;;;;;
2019/09/28 15:21:47;;;;;;;222.1;205.7;;;;;;;;;;;;;
2019/09/28 15:24:12;;;;;;;32.4;29.5;;;;;;;;;;;;;
2019/09/28 15:26:37;;;;;;;30.3;27.5;;;;;;;;;;;;;
2019/09/28 15:29:02;;;;;;;373.8;340.8;;;;;;;;;;;;;
2019/09/28 15:31:28;;;;;;;380.3;345.3;;;;;;;;;;;;;
2019/09/28 15:33:53;;;;;;;391.8;350.2;;;;;;;;;;;;;
2019/09/28 15:36:18;;;;;;;394;350.8;;;;;;;;;;;;;
2019/09/28 15:38:43;;;;;;;397.9;353.9;;;;;;;;;;;;;
2019/09/28 15:41:08;;;;;;;225.8;204.7;;;;;;;;;;;;;
2019/09/28 15:43:33;;;;;;;16.8;10;;;;;;;;;;;;;
2019/09/28 15:45:58;;;;;;;3.3;0.7;;;;;;;;;;;;;
2019/09/28 15:48:23;;;;;;;3.1;0.8;;;;;;;;;;;;;
2019/09/28 15:50:48;;;;;;;2.6;0.7;;;;;;;;;;;;;
2019/09/28 15:53:13;;;;;;;3.4;0.7;;;;;;;;;;;;;
2019/09/28 15:55:39;;;;;;;2.8;0.7;;;;;;;;;;;;;
2019/09/28 15:58:04;;;;;;;3.6;0.8;;;;;;;;;;;;;
2019/09/28 16:00:29;;;;;;;4.5;0.8;;;;;;;;;;;;;
2019/09/28 16:02:54;;;;;;;2.4;0.6;;;;;;;;;;;;;
2019/09/28 16:05:20;;;;;;;2.8;0.9;;;;;;;;;;;;;
2019/09/28 16:07:45;;;;;;;68.3;61.6;;;;;;;;;;;;;
2019/09/28 16:10:10;;;;;;;3.3;0.8;;;;;;;;;;;;;
2019/09/28 16:12:35;;;;;;;237;212.6;;;;;;;;;;;;;
2019/09/28 16:15:00;;;;;;;4;0.7;;;;;;;;;;;;;
2019/09/28 16:17:25;;;;;;;236.6;210.4;;;;;;;;;;;;;
2019/09/28 16:19:50;;;;;;;3.5;0.7;;;;;;;;;;;;;
2019/09/28 16:22:15;;;;;;;2.5;0.8;;;;;;;;;;;;;
2019/09/28 16:24:41;;;;;;;3.6;0.8;;;;;;;;;;;;;
2019/09/28 16:27:06;;;;;;;340.3;304;;;;;;;;;;;;;
2019/09/28 16:29:31;;;;;;;65;58.8;;;;;;;;;;;;;
2019/09/28 16:31:56;;;;;;;340.1;277.9;;;;;;;;;;;;;
2019/09/28 16:34:21;;;;;;;158.5;146.9;;;;;;;;;;;;;
2019/09/28 16:36:46;;;;;;;17;15.7;;;;;;;;;;;;;
2019/09/28 16:39:12;;;;;;;428.5;298.3;;;;;;;;;;;;;
2019/09/28 16:41:37;;;;;;;385.6;309.8;;;;;;;;;;;;;
2019/09/28 16:44:02;;;;;;;59.4;55.7;;;;;;;;;;;;;
2019/09/28 16:46:27;;;;;;;2.6;0.7;;;;;;;;;;;;;
2019/09/28 16:48:52;;;;;;;1.5;0.5;;;;;;;;;;;;;
2019/09/28 16:51:17;;;;;;;4.6;0.7;;;;;;;;;;;;;
2019/09/28 16:53:42;;;;;;;3.6;0.7;;;;;;;;;;;;;
2019/09/28 16:56:07;;;;;;;6;0.7;;;;;;;;;;;;;
2019/09/28 16:58:33;;;;;;;2.8;0.9;;;;;;;;;;;;;
2019/09/28 17:00:58;;;;;;;3.7;1.3;;;;;;;;;;;;;
2019/09/28 17:03:23;;;;;;;2.8;1;;;;;;;;;;;;;
2019/09/28 17:05:48;;;;;;;3.4;0.8;;;;;;;;;;;;;
2019/09/28 17:08:13;;;;;;;4.2;1.1;;;;;;;;;;;;;
2019/09/28 17:10:39;;;;;;;3.9;1;;;;;;;;;;;;;
2019/09/28 17:13:04;;;;;;;4;0.7;;;;;;;;;;;;;
2019/09/28 17:15:29;;;;;;;4.3;0.8;;;;;;;;;;;;;
2019/09/28 17:17:54;;;;;;;4.4;1.7;;;;;;;;;;;;;
2019/09/28 17:20:19;;;;;;;4.4;2;;;;;;;;;;;;;
2019/09/28 17:22:44;;;;;;;5.9;2.2;;;;;;;;;;;;;
2019/09/28 17:25:09;;;;;;;6.5;2.7;;;;;;;;;;;;;
2019/09/28 17:27:35;;;;;;;5.4;2;;;;;;;;;;;;;
2019/09/28 17:30:00;;;;;;;6.3;3.2;;;;;;;;;;;;;
2019/09/28 17:32:25;;;;;;;4.8;1.5;;;;;;;;;;;;;
2019/09/28 17:34:50;;;;;;;16.8;7.2;;;;;;;;;;;;;
2019/09/28 17:37:16;;;;;;;12.4;6.1;;;;;;;;;;;;;
2019/09/28 17:39:41;;;;;;;10.7;5.2;;;;;;;;;;;;;
2019/09/28 17:42:06;;;;;;;8.2;4.2;;;;;;;;;;;;;
2019/09/28 17:44:31;;;;;;;7.7;3.4;;;;;;;;;;;;;
2019/09/28 17:46:56;;;;;;;10.4;3.9;;;;;;;;;;;;;
2019/09/28 17:49:21;;;;;;;11.8;5.7;;;;;;;;;;;;;
2019/09/28 17:51:46;;;;;;;11.1;4.9;;;;;;;;;;;;;
2019/09/28 17:54:11;;;;;;;9.2;4.5;;;;;;;;;;;;;
2019/09/28 17:56:37;;;;;;;9.4;4.2;;;;;;;;;;;;;
2019/09/28 17:59:02;;;;;;;5.8;2.1;;;;;;;;;;;;;
2019/09/28 18:01:27;;;;;;;5.6;2.2;;;;;;;;;;;;;
2019/09/28 18:03:52;;;;;;;4.6;1.7;;;;;;;;;;;;;
2019/09/28 18:06:17;;;;;;;5.9;2;;;;;;;;;;;;;
2019/09/28 18:08:42;;;;;;;5.4;1.8;;;;;;;;;;;;;
2019/09/28 18:11:07;;;;;;;5.5;2.1;;;;;;;;;;;;;
2019/09/28 18:13:32;;;;;;;7.1;2.4;;;;;;;;;;;;;
2019/09/28 18:15:58;;;;;;;7;2.3;;;;;;;;;;;;;
2019/09/28 18:18:23;;;;;;;8;2;;;;;;;;;;;;;
2019/09/28 18:20:48;;;;;;;8.4;3;;;;;;;;;;;;;
2019/09/28 18:23:13;;;;;;;9.8;2.5;;;;;;;;;;;;;
2019/09/28 18:25:38;;;;;;;6.8;2.5;;;;;;;;;;;;;
2019/09/28 18:28:03;;;;;;;6.6;3.2;;;;;;;;;;;;;
2019/09/28 18:30:28;;;;;;;7.4;3.6;;;;;;;;;;;;;
2019/09/28 18:32:53;;;;;;;8.9;3.1;;;;;;;;;;;;;
2019/09/28 18:35:19;;;;;;;10;3.2;;;;;;;;;;;;;
2019/09/28 18:37:44;;;;;;;7.2;4;;;;;;;;;;;;;
2019/09/28 18:40:09;;;;;;;6.3;2.5;;;;;;;;;;;;;
2019/09/28 18:42:34;;;;;;;2.4;0.8;;;;;;;;;;;;;
2019/09/28 18:44:59;;;;;;;96.7;87.5;;;;;;;;;;;;;
2019/09/28 18:47:25;;;;;;;68.5;64.2;;;;;;;;;;;;;
2019/09/28 18:49:50;;;;;;;3.6;2.6;;;;;;;;;;;;;
2019/09/28 18:52:15;;;;;;;9.7;7.3;;;;;;;;;;;;;
2019/09/28 18:54:40;;;;;;;9.7;6.9;;;;;;;;;;;;;
2019/09/28 18:57:05;;;;;;;45.8;42.2;;;;;;;;;;;;;
2019/09/28 18:59:30;;;;;;;31.3;28.8;;;;;;;;;;;;;
2019/09/28 19:01:55;;;;;;;27.4;25;;;;;;;;;;;;;
2019/09/28 19:04:20;;;;;;;124.3;115.2;;;;;;;;;;;;;
2019/09/28 19:06:46;;;;;;;224.5;201.5;;;;;;;;;;;;;
2019/09/28 19:09:11;;;;;;;116.7;108.4;;;;;;;;;;;;;
2019/09/28 19:11:36;;;;;;;47.9;44.6;;;;;;;;;;;;;
2019/09/28 19:14:01;;;;;;;151.7;140.3;;;;;;;;;;;;;
2019/09/28 19:16:26;;;;;;;435.1;274.6;;;;;;;;;;;;;
2019/09/28 19:18:51;;;;;;;463.8;333.6;;;;;;;;;;;;;
2019/09/28 19:21:16;;;;;;;180.8;132.9;;;;;;;;;;;;;
2019/09/28 19:23:42;;;;;;;90;80.8;;;;;;;;;;;;;
2019/09/28 19:26:07;;;;;;;470.1;395.4;;;;;;;;;;;;;
2019/09/28 19:28:32;;;;;;;425.7;379.5;;;;;;;;;;;;;
2019/09/28 19:30:57;;;;;;;604.4;434;;;;;;;;;;;;;
2019/09/28 19:33:22;;;;;;;535.7;423.8;;;;;;;;;;;;;
2019/09/28 19:35:47;;;;;;;482.3;405.7;;;;;;;;;;;;;
2019/09/28 19:38:12;;;;;;;465;387.3;;;;;;;;;;;;;
2019/09/28 19:40:37;;;;;;;488.1;416.9;;;;;;;;;;;;;
2019/09/28 19:43:02;;;;;;;455.4;391.5;;;;;;;;;;;;;
2019/09/28 19:45:28;;;;;;;465.4;394.3;;;;;;;;;;;;;
2019/09/28 19:47:53;;;;;;;457.1;408.8;;;;;;;;;;;;;
2019/09/28 19:50:18;;;;;;;456.7;389.7;;;;;;;;;;;;;
2019/09/28 19:52:44;;;;;;;476.6;405.5;;;;;;;;;;;;;
2019/09/28 19:55:09;;;;;;;435;362.7;;;;;;;;;;;;;
2019/09/28 19:57:34;;;;;;;438.5;368.6;;;;;;;;;;;;;
2019/09/28 19:59:59;;;;;;;436.7;363.8;;;;;;;;;;;;;
2019/09/28 20:02:24;;;;;;;420.2;352;;;;;;;;;;;;;
2019/09/28 20:04:49;;;;;;;421.6;356.5;;;;;;;;;;;;;
2019/09/28 20:07:14;;;;;;;414.5;345.1;;;;;;;;;;;;;
2019/09/28 20:09:40;;;;;;;417;342.1;;;;;;;;;;;;;
2019/09/28 20:12:05;;;;;;;411.9;340.6;;;;;;;;;;;;;
2019/09/28 20:14:30;;;;;;;446.7;371.6;;;;;;;;;;;;;
2019/09/28 20:16:55;;;;;;;443.4;373.2;;;;;;;;;;;;;
2019/09/28 20:19:20;;;;;;;450.4;381.4;;;;;;;;;;;;;
2019/09/28 20:21:45;;;;;;;449.6;380.2;;;;;;;;;;;;;
2019/09/28 20:24:10;;;;;;;455.1;390.2;;;;;;;;;;;;;
2019/09/28 20:26:35;;;;;;;452.9;386.5;;;;;;;;;;;;;
2019/09/28 20:29:01;;;;;;;475.1;404.5;;;;;;;;;;;;;
2019/09/28 20:31:26;;;;;;;439.7;379.4;;;;;;;;;;;;;
2019/09/28 20:33:51;;;;;;;482.2;415;;;;;;;;;;;;;
2019/09/28 20:36:16;;;;;;;459;396.1;;;;;;;;;;;;;
2019/09/28 20:38:41;;;;;;;475.3;418.8;;;;;;;;;;;;;
2019/09/28 20:41:07;;;;;;;468.6;407.7;;;;;;;;;;;;;
2019/09/28 20:43:32;;;;;;;440.1;381.5;;;;;;;;;;;;;
2019/09/28 20:45:57;;;;;;;446.6;383.6;;;;;;;;;;;;;
2019/09/28 20:48:22;;;;;;;428.7;357.1;;;;;;;;;;;;;
2019/09/28 20:50:47;;;;;;;422;350.9;;;;;;;;;;;;;
2019/09/28 20:53:12;;;;;;;438.9;375.9;;;;;;;;;;;;;
2019/09/28 20:55:37;;;;;;;435;359.3;;;;;;;;;;;;;
2019/09/28 20:58:02;;;;;;;434.2;358.3;;;;;;;;;;;;;
2019/09/28 21:00:27;;;;;;;411.3;329.9;;;;;;;;;;;;;
2019/09/28 21:02:53;;;;;;;398.4;314.7;;;;;;;;;;;;;
2019/09/28 21:05:18;;;;;;;396.7;311.7;;;;;;;;;;;;;
2019/09/28 21:07:43;;;;;;;402.1;320.3;;;;;;;;;;;;;
2019/09/28 21:10:08;;;;;;;403.5;317.6;;;;;;;;;;;;;
2019/09/28 21:12:33;;;;;;;414.4;340.7;;;;;;;;;;;;;
2019/09/28 21:14:58;;;;;;;426.9;349.6;;;;;;;;;;;;;
2019/09/28 21:17:24;;;;;;;424.7;345.5;;;;;;;;;;;;;
2019/09/28 21:19:49;;;;;;;426.7;347.3;;;;;;;;;;;;;
2019/09/28 21:22:14;;;;;;;431;352.3;;;;;;;;;;;;;
2019/09/28 21:24:39;;;;;;;430.5;353.3;;;;;;;;;;;;;
2019/09/28 21:27:04;;;;;;;430.9;353.7;;;;;;;;;;;;;
2019/09/28 21:29:29;;;;;;;416.1;341.8;;;;;;;;;;;;;
2019/09/28 21:31:54;;;;;;;421.7;339.5;;;;;;;;;;;;;
2019/09/28 21:34:20;;;;;;;421.8;342.5;;;;;;;;;;;;;
2019/09/28 21:36:45;;;;;;;429.1;350.3;;;;;;;;;;;;;
2019/09/28 21:39:10;;;;;;;430.8;351.2;;;;;;;;;;;;;
2019/09/28 21:41:35;;;;;;;436.6;359.8;;;;;;;;;;;;;
2019/09/28 21:44:00;;;;;;;439.2;363.8;;;;;;;;;;;;;
2019/09/28 21:46:25;;;;;;;440.2;366.1;;;;;;;;;;;;;
2019/09/28 21:48:50;;;;;;;432.4;351.5;;;;;;;;;;;;;
2019/09/28 21:51:15;;;;;;;433.1;354.5;;;;;;;;;;;;;
2019/09/28 21:53:41;;;;;;;427;348.3;;;;;;;;;;;;;
